Sao Goncalo do Amarante, Brazil
Current Conditions -  °F | °C
As of 7:00 AM on Friday 24 Oct 2014 (Local Time) from SBNT Reporting Station
Broken Clouds Broken Clouds  
Wind Chill: 81°   Ceiling: 2100
Heat Index: 83°   Visibility: 6mi
Dew Point: 68°   Wind: 15mph
Humidity: 65%   Direction: 110°ESE
Pressure: 29.91"   Gusts: NA
Location:  5.79°S, 35.33°W
Report Text: SBNT 241000Z 11013KT 9999 BKN021 27/20 Q1013
Loading
Personal Weather Stations






























Interactive Weather Map
Tropical Storm Tracking
New forecast layout! Learn more

10-Day Weather Forecast

Advertisements
Track Severe Weather on mobile